createdAt,value
2023-04-23T00:00:19.102Z,20.40
2023-04-23T00:02:54.035Z,18.80
2023-04-23T00:05:07.459Z,20.90
2023-04-23T00:07:21.723Z,20.40
2023-04-23T00:09:35.604Z,20.00
2023-04-23T00:11:48.318Z,18.60
2023-04-23T00:14:01.294Z,22.60
2023-04-23T00:16:14.433Z,21.80
2023-04-23T00:18:26.932Z,21.30
2023-04-23T00:20:39.524Z,20.10
2023-04-23T00:22:52.035Z,21.00
2023-04-23T00:25:05.069Z,21.40
2023-04-23T00:27:18.289Z,20.30
2023-04-23T00:29:31.210Z,22.00
2023-04-23T00:31:43.834Z,21.30
2023-04-23T00:33:56.479Z,23.20
2023-04-23T00:36:09.041Z,20.00
2023-04-23T00:38:21.828Z,20.90
2023-04-23T00:40:34.479Z,20.60
2023-04-23T00:42:48.787Z,19.60
2023-04-23T00:45:02.215Z,21.00
2023-04-23T00:47:15.163Z,20.60
2023-04-23T00:49:28.654Z,20.40
2023-04-23T00:51:41.428Z,22.70
2023-04-23T00:53:53.974Z,20.70
2023-04-23T00:56:06.957Z,23.10
2023-04-23T00:58:19.716Z,22.30
2023-04-23T01:00:35.721Z,23.20
2023-04-23T01:02:50.464Z,22.60
2023-04-23T01:05:05.071Z,21.30
2023-04-23T01:07:18.250Z,22.00
2023-04-23T01:09:32.491Z,21.30
2023-04-23T01:11:45.135Z,22.40
2023-04-23T01:13:59.094Z,26.80
2023-04-23T01:16:12.034Z,22.80
2023-04-23T01:18:25.126Z,23.30
2023-04-23T01:20:37.896Z,24.00
2023-04-23T01:22:50.972Z,24.50
2023-04-23T01:25:04.351Z,23.30
2023-04-23T01:27:19.405Z,24.50
2023-04-23T01:29:32.898Z,25.70
2023-04-23T01:31:46.781Z,23.70
2023-04-23T01:34:00.360Z,24.30
2023-04-23T01:36:13.218Z,25.80
2023-04-23T01:38:28.670Z,23.50
2023-04-23T01:40:41.490Z,23.50
2023-04-23T01:42:54.401Z,24.00
2023-04-23T01:45:08.064Z,21.80
2023-04-23T01:47:21.318Z,21.70
2023-04-23T01:49:34.182Z,24.40
2023-04-23T01:51:46.757Z,21.40
2023-04-23T01:53:59.323Z,21.90
2023-04-23T01:56:12.570Z,25.40
2023-04-23T01:58:25.425Z,21.80
2023-04-23T02:00:38.010Z,22.70
2023-04-23T02:02:53.747Z,22.50
2023-04-23T02:05:14.720Z,24.50
2023-04-23T02:07:27.320Z,22.00
2023-04-23T02:09:40.689Z,22.80
2023-04-23T02:11:53.262Z,22.40
2023-04-23T02:14:07.438Z,22.80
2023-04-23T02:16:20.129Z,24.90
2023-04-23T02:18:32.690Z,23.00
2023-04-23T02:20:45.415Z,20.90
2023-04-23T02:22:58.081Z,21.90
2023-04-23T02:25:11.143Z,21.50
2023-04-23T02:27:23.839Z,23.50
2023-04-23T02:29:36.842Z,21.20
2023-04-23T02:31:49.456Z,20.30
2023-04-23T02:34:02.059Z,22.10
2023-04-23T02:36:14.644Z,20.70
2023-04-23T02:38:27.173Z,21.20
2023-04-23T02:40:39.806Z,19.90
2023-04-23T02:42:52.445Z,20.40
2023-04-23T02:45:05.704Z,21.90
2023-04-23T02:47:18.299Z,20.90
2023-04-23T02:49:30.941Z,20.80
2023-04-23T02:51:43.512Z,19.60
2023-04-23T02:53:56.092Z,19.70
2023-04-23T02:56:08.684Z,21.10
2023-04-23T02:58:21.327Z,20.30
2023-04-23T03:00:33.979Z,22.20
2023-04-23T03:02:46.644Z,21.90
2023-04-23T03:04:59.340Z,20.10
2023-04-23T03:07:13.341Z,20.50
2023-04-23T03:09:25.939Z,19.00
2023-04-23T03:11:39.451Z,18.90
2023-04-23T03:13:52.312Z,19.00
2023-04-23T03:16:05.186Z,19.90
2023-04-23T03:18:18.103Z,20.30
2023-04-23T03:20:30.874Z,22.00
2023-04-23T03:22:43.441Z,19.80
2023-04-23T03:24:55.941Z,20.60
2023-04-23T03:27:08.505Z,20.40
2023-04-23T03:29:21.062Z,19.60
2023-04-23T03:31:33.657Z,20.30
2023-04-23T03:33:46.198Z,20.70
2023-04-23T03:35:58.907Z,20.00
2023-04-23T03:38:11.513Z,21.00
2023-04-23T03:40:24.310Z,21.80
2023-04-23T03:42:37.265Z,23.70
2023-04-23T03:44:49.779Z,19.90
2023-04-23T03:47:02.333Z,22.80
2023-04-23T03:49:14.998Z,23.40
2023-04-23T03:51:28.100Z,20.00
2023-04-23T03:53:40.723Z,20.60
2023-04-23T03:55:53.265Z,21.70
2023-04-23T03:58:05.905Z,19.30
2023-04-23T04:00:18.711Z,19.60
2023-04-23T04:02:31.395Z,21.30
2023-04-23T04:04:46.421Z,21.80
2023-04-23T04:07:02.729Z,19.30
2023-04-23T04:09:15.334Z,18.70
2023-04-23T04:11:27.896Z,20.80
2023-04-23T04:13:40.663Z,18.50
2023-04-23T04:15:53.214Z,19.60
2023-04-23T04:18:06.880Z,18.00
2023-04-23T04:20:19.616Z,17.60
2023-04-23T04:22:32.181Z,18.40
2023-04-23T04:24:47.360Z,17.70
2023-04-23T04:27:00.067Z,17.10
2023-04-23T04:29:12.604Z,17.90
2023-04-23T04:31:28.101Z,17.30
2023-04-23T04:33:40.693Z,18.10
2023-04-23T04:35:54.786Z,18.80
2023-04-23T04:38:07.319Z,17.60
2023-04-23T04:40:20.003Z,20.00
2023-04-23T04:42:32.565Z,17.30
2023-04-23T04:44:45.132Z,17.00
2023-04-23T04:46:57.908Z,18.80
2023-04-23T04:49:11.725Z,17.90
2023-04-23T04:51:24.259Z,16.80
2023-04-23T04:53:36.822Z,18.30
2023-04-23T04:55:49.689Z,17.70
2023-04-23T04:58:02.227Z,17.30
2023-04-23T05:00:22.639Z,16.00
2023-04-23T05:02:35.348Z,16.60
2023-04-23T05:04:48.030Z,17.50
2023-04-23T05:07:00.650Z,15.60
2023-04-23T05:09:13.195Z,16.70
2023-04-23T05:11:25.850Z,16.60
2023-04-23T05:13:38.346Z,15.30
2023-04-23T05:15:50.830Z,15.40
2023-04-23T05:18:04.623Z,13.20
2023-04-23T05:20:17.148Z,13.60
2023-04-23T05:22:30.363Z,13.10
2023-04-23T05:24:43.058Z,10.90
2023-04-23T05:26:56.583Z,11.80
2023-04-23T05:29:09.205Z,9.80
2023-04-23T05:31:21.898Z,11.10
2023-04-23T05:33:46.433Z,10.60
2023-04-23T05:36:02.234Z,9.60
2023-04-23T05:38:14.793Z,12.40
2023-04-23T05:40:27.342Z,9.00
2023-04-23T05:42:39.897Z,9.70
2023-04-23T05:44:52.450Z,9.60
2023-04-23T05:47:05.273Z,11.40
2023-04-23T05:49:17.810Z,8.60
2023-04-23T05:51:30.706Z,8.90
2023-04-23T05:53:43.263Z,9.40
2023-04-23T05:55:56.010Z,10.70
2023-04-23T05:58:08.559Z,8.70
2023-04-23T06:00:21.075Z,7.60
2023-04-23T06:02:33.900Z,9.00
2023-04-23T06:04:47.004Z,11.20
2023-04-23T06:07:00.244Z,8.30
2023-04-23T06:09:12.891Z,8.20
2023-04-23T06:11:25.545Z,8.40
2023-04-23T06:13:42.195Z,8.70
2023-04-23T06:15:56.291Z,8.00
2023-04-23T06:18:10.362Z,8.80
2023-04-23T06:20:22.894Z,10.50
2023-04-23T06:22:35.455Z,9.60
2023-04-23T06:24:48.009Z,8.00
2023-04-23T06:27:02.036Z,8.30
2023-04-23T06:29:14.626Z,9.40
2023-04-23T06:31:27.970Z,8.80
2023-04-23T06:33:40.579Z,10.10
2023-04-23T06:35:53.182Z,10.60
2023-04-23T06:38:06.246Z,8.60
2023-04-23T06:40:18.956Z,8.10
2023-04-23T06:42:31.826Z,10.90
2023-04-23T06:44:44.400Z,7.40
2023-04-23T06:46:56.978Z,7.00
2023-04-23T06:49:09.590Z,7.30
2023-04-23T06:51:22.143Z,10.80
2023-04-23T06:53:34.702Z,7.40
2023-04-23T06:55:47.321Z,7.30
2023-04-23T06:57:59.960Z,7.80
2023-04-23T07:00:13.424Z,6.60
2023-04-23T07:02:26.246Z,8.60
2023-04-23T07:04:38.943Z,7.50
2023-04-23T07:06:51.676Z,8.80
2023-04-23T07:09:04.621Z,7.50
2023-04-23T07:11:17.177Z,6.90
2023-04-23T07:13:29.708Z,7.00
2023-04-23T07:15:42.869Z,8.40
2023-04-23T07:17:55.473Z,10.10
2023-04-23T07:20:08.892Z,5.80
2023-04-23T07:22:21.508Z,7.40
2023-04-23T07:24:34.065Z,6.10
2023-04-23T07:26:46.934Z,6.10
2023-04-23T07:28:59.819Z,6.00
2023-04-23T07:31:12.526Z,9.10
2023-04-23T07:33:25.490Z,5.80
2023-04-23T07:35:38.080Z,6.40
2023-04-23T07:37:53.767Z,5.70
2023-04-23T07:40:07.880Z,5.80
2023-04-23T07:42:20.425Z,7.20
2023-04-23T07:44:32.983Z,6.50
2023-04-23T07:46:45.500Z,5.50
2023-04-23T07:48:58.072Z,7.80
2023-04-23T07:51:10.603Z,8.30
2023-04-23T07:53:23.379Z,7.10
2023-04-23T07:55:36.564Z,10.20
2023-04-23T07:57:49.568Z,8.20
2023-04-23T08:00:02.947Z,7.10
2023-04-23T08:02:15.665Z,7.80
2023-04-23T08:04:28.519Z,7.90
2023-04-23T08:06:41.776Z,8.10
2023-04-23T08:08:56.062Z,7.20
2023-04-23T08:11:08.627Z,7.00
2023-04-23T08:13:21.285Z,6.50
2023-04-23T08:15:33.882Z,6.80
2023-04-23T08:17:46.576Z,7.80
2023-04-23T08:19:59.216Z,7.70
2023-04-23T08:22:13.217Z,5.10
2023-04-23T08:24:26.889Z,6.90
2023-04-23T08:26:39.449Z,6.20
2023-04-23T08:28:52.198Z,6.60
2023-04-23T08:31:15.192Z,5.30
2023-04-23T08:33:35.715Z,6.20
2023-04-23T08:35:48.315Z,6.70
2023-04-23T08:38:01.652Z,7.20
2023-04-23T08:40:14.367Z,5.70
2023-04-23T08:42:44.185Z,6.40
2023-04-23T08:44:57.398Z,7.00
2023-04-23T08:47:14.384Z,5.40
2023-04-23T08:49:33.025Z,8.00
2023-04-23T08:51:59.550Z,7.60
2023-04-23T08:54:16.154Z,5.30
2023-04-23T08:56:28.923Z,5.30
2023-04-23T08:58:41.910Z,4.60
2023-04-23T09:00:58.033Z,7.10
2023-04-23T09:03:11.685Z,6.10
2023-04-23T09:05:24.493Z,5.80
2023-04-23T09:07:37.337Z,6.40
2023-04-23T09:09:50.147Z,5.60
2023-04-23T09:12:02.744Z,5.00
2023-04-23T09:14:16.186Z,4.50
2023-04-23T09:16:28.746Z,5.40
2023-04-23T09:18:42.213Z,6.00
2023-04-23T09:20:54.790Z,6.00
2023-04-23T09:23:08.375Z,5.00
2023-04-23T09:25:24.278Z,7.40
2023-04-23T09:27:38.626Z,4.00
2023-04-23T09:29:53.117Z,5.10
2023-04-23T09:32:10.312Z,5.00
2023-04-23T09:34:24.573Z,5.40
2023-04-23T09:36:37.495Z,5.80
2023-04-23T09:38:50.784Z,6.30
2023-04-23T09:41:21.706Z,7.20
2023-04-23T09:43:34.256Z,4.60
2023-04-23T09:45:50.493Z,5.10
2023-04-23T09:48:03.536Z,5.00
2023-04-23T09:50:16.181Z,6.10
2023-04-23T09:52:31.494Z,4.80
2023-04-23T09:54:46.465Z,3.90
2023-04-23T09:57:02.127Z,6.40
2023-04-23T09:59:31.997Z,5.20
2023-04-23T10:01:53.197Z,5.80
2023-04-23T10:04:05.923Z,4.40
2023-04-23T10:06:39.718Z,6.80
2023-04-23T10:08:51.416Z,5.60
2023-04-23T10:11:20.126Z,4.60
2023-04-23T10:13:37.434Z,4.20
2023-04-23T10:15:50.540Z,5.50
2023-04-23T10:18:05.343Z,5.20
2023-04-23T10:20:20.962Z,6.70
2023-04-23T10:22:35.073Z,4.00
2023-04-23T10:24:53.048Z,5.50
2023-04-23T10:27:24.749Z,6.70
2023-04-23T10:29:40.298Z,5.10
2023-04-23T10:31:54.124Z,5.20
2023-04-23T10:34:07.995Z,6.20
2023-04-23T10:36:20.962Z,3.60
2023-04-23T10:38:36.676Z,3.40
2023-04-23T10:40:54.745Z,5.70
2023-04-23T10:43:07.508Z,7.00
2023-04-23T10:45:25.166Z,4.70
2023-04-23T10:47:38.129Z,5.90
2023-04-23T10:49:51.669Z,6.10
2023-04-23T10:52:19.690Z,4.20
2023-04-23T10:54:36.252Z,5.40
2023-04-23T10:56:58.739Z,6.50
2023-04-23T10:59:21.623Z,4.60
2023-04-23T11:01:34.315Z,4.60
2023-04-23T11:03:48.011Z,4.80
2023-04-23T11:06:02.346Z,7.00
2023-04-23T11:08:19.751Z,5.70
2023-04-23T11:10:33.771Z,4.50
2023-04-23T11:12:46.628Z,4.30
2023-04-23T11:15:13.490Z,6.40
2023-04-23T11:17:32.121Z,5.70
2023-04-23T11:20:13.723Z,5.20
2023-04-23T11:22:34.878Z,5.20
2023-04-23T11:24:49.620Z,5.30
2023-04-23T11:29:25.711Z,4.70
2023-04-23T11:31:42.708Z,6.60
2023-04-23T11:34:03.382Z,4.80
2023-04-23T11:36:16.616Z,3.60
2023-04-23T11:38:33.662Z,3.50
2023-04-23T11:40:48.391Z,4.40
2023-04-23T11:43:04.255Z,4.10
2023-04-23T11:45:20.802Z,4.60
2023-04-23T11:47:33.563Z,5.90
2023-04-23T11:49:46.257Z,3.90
2023-04-23T11:52:01.691Z,3.50
2023-04-23T11:54:14.712Z,5.10
2023-04-23T11:56:30.664Z,9.20
2023-04-23T11:58:43.219Z,4.70
2023-04-23T12:01:02.509Z,5.80
2023-04-23T12:03:16.281Z,3.70
2023-04-23T12:05:35.246Z,5.10
2023-04-23T12:07:51.919Z,5.00
2023-04-23T12:10:04.821Z,3.90
2023-04-23T12:12:17.679Z,4.00
2023-04-23T12:14:30.930Z,5.30
2023-04-23T12:16:46.931Z,4.10
2023-04-23T12:19:01.312Z,7.10
2023-04-23T12:21:14.825Z,5.20
2023-04-23T12:23:28.357Z,9.30
2023-04-23T12:25:42.365Z,3.40
2023-04-23T12:28:00.003Z,3.50
2023-04-23T12:30:13.110Z,3.20
2023-04-23T12:32:27.108Z,6.30
2023-04-23T12:34:53.140Z,4.00
2023-04-23T12:37:07.453Z,5.40
2023-04-23T12:39:21.735Z,5.90
2023-04-23T12:41:37.145Z,2.90
2023-04-23T12:43:53.150Z,2.80
2023-04-23T12:46:06.031Z,3.10
2023-04-23T12:48:18.780Z,6.40
2023-04-23T12:50:31.415Z,3.20
2023-04-23T12:52:43.969Z,2.50
2023-04-23T12:54:58.524Z,4.20
2023-04-23T12:57:12.992Z,3.60
2023-04-23T12:59:26.364Z,3.60
2023-04-23T13:01:39.089Z,2.80
2023-04-23T13:03:51.772Z,4.50
2023-04-23T13:06:04.468Z,5.10
2023-04-23T13:08:17.011Z,5.40
2023-04-23T13:10:30.861Z,6.80
2023-04-23T13:12:43.498Z,5.70
2023-04-23T13:14:56.661Z,5.00
2023-04-23T13:17:09.305Z,4.80
2023-04-23T13:19:21.892Z,4.20
2023-04-23T13:21:34.603Z,4.20
2023-04-23T13:23:47.324Z,3.90
2023-04-23T13:25:59.849Z,5.60
2023-04-23T13:28:12.364Z,3.50
2023-04-23T13:30:24.879Z,4.50
2023-04-23T13:32:37.557Z,2.80
2023-04-23T13:34:50.170Z,3.80
2023-04-23T13:37:05.565Z,3.90
2023-04-23T13:39:18.329Z,4.00
2023-04-23T13:41:31.003Z,2.80
2023-04-23T13:43:43.695Z,2.90
2023-04-23T13:45:56.394Z,4.40
2023-04-23T13:48:09.017Z,2.70
2023-04-23T13:50:21.580Z,3.20
2023-04-23T13:52:35.231Z,2.40
2023-04-23T13:54:49.032Z,3.70
2023-04-23T13:57:02.498Z,4.00
2023-04-23T13:59:19.871Z,4.10
2023-04-23T14:01:33.175Z,6.30
2023-04-23T14:03:47.226Z,2.90
2023-04-23T14:05:59.945Z,3.80
2023-04-23T14:08:13.054Z,3.60
2023-04-23T14:10:26.194Z,5.50
2023-04-23T14:12:39.111Z,3.90
2023-04-23T14:14:51.664Z,3.30
2023-04-23T14:17:04.221Z,2.60
2023-04-23T14:19:19.620Z,4.70
2023-04-23T14:21:32.223Z,4.10
2023-04-23T14:23:50.807Z,3.40
2023-04-23T14:26:08.834Z,2.80
2023-04-23T14:28:32.677Z,3.30
2023-04-23T14:30:47.623Z,3.90
2023-04-23T14:33:00.387Z,4.60
2023-04-23T14:35:14.490Z,4.20
2023-04-23T14:37:27.114Z,3.60
2023-04-23T14:39:41.312Z,2.90
2023-04-23T14:41:54.087Z,3.90
2023-04-23T14:44:07.137Z,3.50
2023-04-23T14:46:19.739Z,3.00
2023-04-23T14:48:32.747Z,3.50
2023-04-23T14:50:46.278Z,5.10
2023-04-23T14:52:58.977Z,4.40
2023-04-23T14:55:11.537Z,3.50
2023-04-23T14:57:24.070Z,3.20
2023-04-23T14:59:36.601Z,3.00
2023-04-23T15:01:49.305Z,3.40
2023-04-23T15:04:02.059Z,3.40
2023-04-23T15:06:14.879Z,2.80
2023-04-23T15:08:27.468Z,3.10
2023-04-23T15:10:40.289Z,3.00
2023-04-23T15:13:03.497Z,2.50
2023-04-23T15:15:36.912Z,3.30
2023-04-23T15:17:54.137Z,2.70
2023-04-23T15:20:07.009Z,2.80
2023-04-23T15:22:19.653Z,4.40
2023-04-23T15:24:32.279Z,2.30
2023-04-23T15:26:48.620Z,3.60
2023-04-23T15:29:01.324Z,2.80
2023-04-23T15:31:14.145Z,3.20
2023-04-23T15:33:26.684Z,3.90
2023-04-23T15:35:39.256Z,3.20
2023-04-23T15:37:52.163Z,3.70
2023-04-23T15:40:05.123Z,3.60
2023-04-23T15:42:21.076Z,3.60
2023-04-23T15:44:33.835Z,3.20
2023-04-23T15:46:46.558Z,2.90
2023-04-23T15:49:00.128Z,3.20
2023-04-23T15:51:12.944Z,2.90
2023-04-23T15:53:27.501Z,2.80
2023-04-23T15:55:40.719Z,4.50
2023-04-23T15:57:53.376Z,5.60
2023-04-23T16:00:06.887Z,4.70
2023-04-23T16:02:19.474Z,4.00
2023-04-23T16:04:32.513Z,8.00
2023-04-23T16:06:45.268Z,8.00
2023-04-23T16:08:57.770Z,4.40
2023-04-23T16:11:10.414Z,5.70
2023-04-23T16:13:24.228Z,4.00
2023-04-23T16:15:36.877Z,3.80
2023-04-23T16:17:50.079Z,4.80
2023-04-23T16:20:04.737Z,4.00
2023-04-23T16:22:17.480Z,4.20
2023-04-23T16:24:31.761Z,4.30
2023-04-23T16:26:44.458Z,4.60
2023-04-23T16:29:16.489Z,7.30
2023-04-23T16:31:29.812Z,9.50
2023-04-23T16:33:42.340Z,5.50
2023-04-23T16:35:56.805Z,5.10
2023-04-23T16:38:11.160Z,5.60
2023-04-23T16:40:23.795Z,5.60
2023-04-23T16:42:36.324Z,7.30
2023-04-23T16:44:48.940Z,8.70
2023-04-23T16:47:01.950Z,7.10
2023-04-23T16:49:14.588Z,4.60
2023-04-23T16:51:28.339Z,4.80
2023-04-23T16:53:41.032Z,5.00
2023-04-23T16:55:53.703Z,5.00
2023-04-23T16:58:06.498Z,4.20
2023-04-23T17:00:19.151Z,7.00
2023-04-23T17:02:32.384Z,6.90
2023-04-23T17:04:45.370Z,8.70
2023-04-23T17:06:58.428Z,14.20
2023-04-23T17:09:11.193Z,6.10
2023-04-23T17:11:28.287Z,5.10
2023-04-23T17:13:43.459Z,5.70
2023-04-23T17:15:56.045Z,5.90
2023-04-23T17:18:10.531Z,4.10
2023-04-23T17:20:23.191Z,4.80
2023-04-23T17:22:36.120Z,4.50
2023-04-23T17:24:48.666Z,4.00
2023-04-23T17:27:01.578Z,4.20
2023-04-23T17:29:14.189Z,4.80
2023-04-23T17:31:26.777Z,3.60
2023-04-23T17:33:39.665Z,4.40
2023-04-23T17:35:53.442Z,4.50
2023-04-23T17:38:05.976Z,5.30
2023-04-23T17:40:18.789Z,3.60
2023-04-23T17:42:31.613Z,5.00
2023-04-23T17:44:44.679Z,4.50
2023-04-23T17:46:57.527Z,14.30
2023-04-23T17:49:10.647Z,13.50
2023-04-23T17:51:23.470Z,6.80
2023-04-23T17:53:36.384Z,5.00
2023-04-23T17:55:48.951Z,7.90
2023-04-23T17:58:05.137Z,9.40
2023-04-23T18:00:18.297Z,10.20
2023-04-23T18:02:31.021Z,6.90
2023-04-23T18:04:43.699Z,7.90
2023-04-23T18:06:56.279Z,5.20
2023-04-23T18:09:08.987Z,4.80
2023-04-23T18:11:21.783Z,4.60
2023-04-23T18:13:35.925Z,6.30
2023-04-23T18:15:49.981Z,5.60
2023-04-23T18:18:03.319Z,5.60
2023-04-23T18:20:16.205Z,6.10
2023-04-23T18:22:28.913Z,6.30
2023-04-23T18:24:41.559Z,7.20
2023-04-23T18:26:54.628Z,6.90
2023-04-23T18:29:07.526Z,7.00
2023-04-23T18:31:20.126Z,7.70
2023-04-23T18:33:47.685Z,6.00
2023-04-23T18:36:27.249Z,6.80
2023-04-23T18:38:44.887Z,7.10
2023-04-23T18:40:59.092Z,23.30
2023-04-23T18:43:11.596Z,25.90
2023-04-23T18:45:24.173Z,10.40
2023-04-23T18:47:48.894Z,5.40
2023-04-23T18:50:08.189Z,4.70
2023-04-23T18:52:20.782Z,4.10
2023-04-23T18:54:33.291Z,6.80
2023-04-23T18:56:46.750Z,13.40
2023-04-23T18:58:59.325Z,15.70
2023-04-23T19:01:12.137Z,16.60
2023-04-23T19:03:27.271Z,17.30
2023-04-23T19:05:40.547Z,12.70
2023-04-23T19:07:53.231Z,11.70
2023-04-23T19:10:06.420Z,13.00
2023-04-23T19:12:18.979Z,13.30
2023-04-23T19:14:31.566Z,11.10
2023-04-23T19:16:44.474Z,9.00
2023-04-23T19:18:57.099Z,7.40
2023-04-23T19:21:09.805Z,8.10
2023-04-23T19:23:22.488Z,7.40
2023-04-23T19:25:36.090Z,5.80
2023-04-23T19:27:48.624Z,6.80
2023-04-23T19:30:01.226Z,7.20
2023-04-23T19:32:13.905Z,6.90
2023-04-23T19:34:27.137Z,7.40
2023-04-23T19:36:42.301Z,8.20
2023-04-23T19:38:54.969Z,7.60
2023-04-23T19:41:07.845Z,7.50
2023-04-23T19:43:20.521Z,6.70
2023-04-23T19:45:33.443Z,6.50
2023-04-23T19:47:46.145Z,8.40
2023-04-23T19:49:58.679Z,7.30
2023-04-23T19:52:21.184Z,6.60
2023-04-23T19:54:33.715Z,7.00
2023-04-23T19:56:46.504Z,7.70
2023-04-23T19:58:59.124Z,7.00
2023-04-23T20:01:13.064Z,6.60
2023-04-23T20:03:26.306Z,7.30
2023-04-23T20:05:39.530Z,7.10
2023-04-23T20:07:52.540Z,7.10
2023-04-23T20:10:05.704Z,7.50
2023-04-23T20:12:19.810Z,7.90
2023-04-23T20:14:32.498Z,8.20
2023-04-23T20:16:45.338Z,6.90
2023-04-23T20:18:58.043Z,6.60
2023-04-23T20:21:10.790Z,6.40
2023-04-23T20:23:23.348Z,7.00
2023-04-23T20:25:36.354Z,6.20
2023-04-23T20:27:49.892Z,5.10
2023-04-23T20:30:08.552Z,6.00
2023-04-23T20:32:21.226Z,6.40
2023-04-23T20:34:33.811Z,6.10
2023-04-23T20:36:47.170Z,5.20
2023-04-23T20:39:03.293Z,5.80
2023-04-23T20:41:15.913Z,5.60
2023-04-23T20:43:29.584Z,6.20
2023-04-23T20:45:43.086Z,5.40
2023-04-23T20:47:57.470Z,5.40
2023-04-23T20:50:10.169Z,4.90
2023-04-23T20:52:22.807Z,4.70
2023-04-23T20:54:36.199Z,5.80
2023-04-23T20:56:53.898Z,5.80
2023-04-23T20:59:06.685Z,4.80
2023-04-23T21:01:19.783Z,4.80
2023-04-23T21:03:32.986Z,5.10
2023-04-23T21:05:46.124Z,4.50
2023-04-23T21:07:58.654Z,4.30
2023-04-23T21:10:11.221Z,4.70
2023-04-23T21:12:23.764Z,4.70
2023-04-23T21:14:36.349Z,4.50
2023-04-23T21:16:48.887Z,4.70
2023-04-23T21:19:01.623Z,5.80
2023-04-23T21:21:14.283Z,5.80
2023-04-23T21:23:26.893Z,4.40
2023-04-23T21:25:40.043Z,4.80
2023-04-23T21:27:54.297Z,4.20
2023-04-23T21:30:18.369Z,5.20
2023-04-23T21:32:31.810Z,4.50
2023-04-23T21:34:44.403Z,4.70
2023-04-23T21:36:56.953Z,6.20
2023-04-23T21:39:11.060Z,4.60
2023-04-23T21:41:25.736Z,4.50
2023-04-23T21:43:38.361Z,4.50
2023-04-23T21:45:50.976Z,5.60
2023-04-23T21:48:04.291Z,5.20
2023-04-23T21:50:17.408Z,4.60
2023-04-23T21:52:30.165Z,4.90
2023-04-23T21:54:42.731Z,5.00
2023-04-23T21:56:55.369Z,5.80
2023-04-23T21:59:08.008Z,6.00
2023-04-23T22:01:20.672Z,5.60
2023-04-23T22:03:38.146Z,7.30
2023-04-23T22:05:52.360Z,8.10
2023-04-23T22:08:07.466Z,7.10
2023-04-23T22:10:21.388Z,6.30
2023-04-23T22:12:33.936Z,7.50
2023-04-23T22:14:46.456Z,6.80
2023-04-23T22:16:59.157Z,7.30
2023-04-23T22:19:12.091Z,7.20
2023-04-23T22:21:24.716Z,7.20
2023-04-23T22:23:37.254Z,9.00
2023-04-23T22:25:49.869Z,7.30
2023-04-23T22:28:03.474Z,8.60
2023-04-23T22:30:16.076Z,7.80
2023-04-23T22:32:29.210Z,8.50
2023-04-23T22:34:41.828Z,7.40
2023-04-23T22:36:54.384Z,8.90
2023-04-23T22:39:06.998Z,7.10
2023-04-23T22:41:19.581Z,8.00
2023-04-23T22:43:32.213Z,7.90
2023-04-23T22:45:44.795Z,7.70
2023-04-23T22:47:57.896Z,7.30
2023-04-23T22:50:10.936Z,8.30
2023-04-23T22:52:23.471Z,7.60
2023-04-23T22:54:36.197Z,8.80
2023-04-23T22:56:48.793Z,7.80
2023-04-23T22:59:05.047Z,8.20
2023-04-23T23:01:20.223Z,7.90
2023-04-23T23:03:32.980Z,7.50
2023-04-23T23:05:45.570Z,8.20
2023-04-23T23:07:58.164Z,6.60
2023-04-23T23:10:10.882Z,8.40
2023-04-23T23:12:23.453Z,7.00
2023-04-23T23:14:37.878Z,10.50
2023-04-23T23:16:50.728Z,7.90
2023-04-23T23:19:04.139Z,8.30
2023-04-23T23:21:16.784Z,8.30
2023-04-23T23:23:29.428Z,8.60
2023-04-23T23:25:41.977Z,9.00
2023-04-23T23:27:54.582Z,6.60
2023-04-23T23:30:07.856Z,8.00
2023-04-23T23:32:20.537Z,7.50
2023-04-23T23:34:33.080Z,6.10
2023-04-23T23:36:46.843Z,6.80
2023-04-23T23:39:00.352Z,8.00
2023-04-23T23:41:12.901Z,6.10
2023-04-23T23:43:25.696Z,7.50
2023-04-23T23:45:38.287Z,7.80
2023-04-23T23:47:51.035Z,11.90
2023-04-23T23:50:03.876Z,10.90
2023-04-23T23:52:16.432Z,13.30
2023-04-23T23:54:29.354Z,14.10
2023-04-23T23:56:41.971Z,10.10
2023-04-23T23:58:54.520Z,6.00
